createdAt,value
2023-03-11T00:02:09.189Z,43.70
2023-03-11T00:06:09.359Z,56.81
2023-03-11T00:10:09.566Z,56.51
2023-03-11T00:14:09.763Z,59.81
2023-03-11T00:18:09.996Z,56.92
2023-03-11T00:22:10.157Z,53.90
2023-03-11T00:26:09.915Z,67.66
2023-03-11T00:30:09.896Z,67.80
2023-03-11T00:34:09.870Z,67.65
2023-03-11T00:38:09.798Z,68.57
2023-03-11T00:42:09.768Z,60.78
2023-03-11T00:46:09.760Z,70.67
2023-03-11T00:50:09.713Z,79.66
2023-03-11T00:54:09.731Z,66.16
2023-03-11T00:58:09.816Z,70.09
2023-03-11T01:02:10.010Z,70.86
2023-03-11T01:06:10.269Z,61.75
2023-03-11T01:10:10.254Z,71.53
2023-03-11T01:14:10.176Z,69.03
2023-03-11T01:18:10.533Z,68.43
2023-03-11T01:22:10.168Z,70.68
2023-03-11T01:26:10.143Z,65.27
2023-03-11T01:30:10.045Z,69.97
2023-03-11T01:34:10.027Z,70.27
2023-03-11T01:38:09.993Z,69.37
2023-03-11T01:42:09.969Z,65.87
2023-03-11T01:46:09.916Z,58.44
2023-03-11T01:50:10.126Z,64.07
2023-03-11T01:54:10.091Z,65.74
2023-03-11T01:58:10.047Z,69.26
2023-03-11T02:02:10.182Z,88.32
2023-03-11T02:06:10.018Z,66.07
2023-03-11T02:10:09.976Z,64.44
2023-03-11T02:14:09.929Z,77.73
2023-03-11T02:18:09.882Z,66.12
2023-03-11T02:22:09.860Z,63.25
2023-03-11T02:26:09.831Z,56.65
2023-03-11T02:30:09.849Z,64.66
2023-03-11T02:34:10.039Z,80.90
2023-03-11T02:38:10.007Z,67.53
2023-03-11T02:42:10.075Z,63.84
2023-03-11T02:46:09.972Z,59.56
2023-03-11T02:50:09.864Z,64.42
2023-03-11T02:54:09.836Z,70.93
2023-03-11T02:58:09.812Z,67.74
2023-03-11T03:02:09.758Z,66.54
2023-03-11T03:06:09.746Z,63.62
2023-03-11T03:10:09.716Z,57.45
2023-03-11T03:14:09.747Z,67.71
2023-03-11T03:18:09.703Z,65.68
2023-03-11T03:22:09.687Z,79.78
2023-03-11T03:26:09.634Z,57.95
2023-03-11T03:30:09.605Z,66.58
2023-03-11T03:34:09.587Z,55.01
2023-03-11T03:38:09.546Z,54.36
2023-03-11T03:42:09.495Z,70.00
2023-03-11T03:46:09.533Z,54.77
2023-03-11T03:50:09.435Z,65.34
2023-03-11T03:54:09.501Z,55.00
2023-03-11T03:58:09.436Z,62.62
2023-03-11T04:02:09.453Z,65.03
2023-03-11T04:06:09.402Z,58.11
2023-03-11T04:10:09.399Z,55.87
2023-03-11T04:14:09.330Z,67.96
2023-03-11T04:18:09.324Z,68.66
2023-03-11T04:22:09.241Z,68.53
2023-03-11T04:26:09.225Z,66.22
2023-03-11T04:30:09.185Z,68.34
2023-03-11T04:34:09.312Z,64.43
2023-03-11T04:38:09.285Z,70.58
2023-03-11T04:42:09.234Z,69.96
2023-03-11T04:46:09.287Z,76.53
2023-03-11T04:50:09.177Z,74.69
2023-03-11T04:54:09.132Z,61.09
2023-03-11T04:58:09.111Z,75.75
2023-03-11T05:02:11.121Z,66.08
2023-03-11T05:06:09.030Z,73.62
2023-03-11T05:10:09.002Z,82.87
2023-03-11T05:14:08.973Z,67.84
2023-03-11T05:18:09.070Z,73.78
2023-03-11T05:22:08.932Z,63.45
2023-03-11T05:26:08.849Z,69.17
2023-03-11T05:30:08.866Z,76.12
2023-03-11T05:34:09.018Z,74.98
2023-03-11T05:38:08.982Z,67.77
2023-03-11T05:42:08.959Z,73.52
2023-03-11T05:46:08.951Z,74.75
2023-03-11T05:50:08.886Z,82.08
2023-03-11T05:54:08.824Z,73.19
2023-03-11T05:58:08.830Z,72.12
2023-03-11T06:02:08.761Z,77.18
2023-03-11T06:06:08.711Z,72.58
2023-03-11T06:10:08.705Z,66.37
2023-03-11T06:14:08.731Z,69.75
2023-03-11T06:18:08.711Z,73.22
2023-03-11T06:22:08.708Z,66.35
2023-03-11T06:26:08.709Z,66.35
2023-03-11T06:30:08.628Z,80.35
2023-03-11T06:34:08.606Z,73.88
2023-03-11T06:38:08.540Z,79.20
2023-03-11T06:42:08.517Z,78.78
2023-03-11T06:46:08.533Z,73.34
2023-03-11T06:50:08.439Z,78.11
2023-03-11T06:54:08.433Z,77.81
2023-03-11T06:58:08.366Z,76.69
2023-03-11T07:02:08.352Z,77.16
2023-03-11T07:06:08.418Z,72.01
2023-03-11T07:10:08.608Z,78.21
2023-03-11T07:14:08.821Z,79.68
2023-03-11T07:18:09.107Z,81.46
2023-03-11T07:22:09.262Z,83.43
2023-03-11T07:26:09.463Z,81.07
2023-03-11T07:30:09.687Z,85.32
2023-03-11T07:34:09.869Z,89.29
2023-03-11T07:38:10.092Z,74.72
2023-03-11T07:42:10.278Z,60.76
2023-03-11T07:46:10.534Z,76.09
2023-03-11T07:50:10.673Z,83.33
2023-03-11T07:54:10.865Z,73.73
2023-03-11T07:58:10.954Z,102.36
2023-03-11T08:02:11.106Z,100.61
2023-03-11T08:06:11.246Z,117.77
2023-03-11T08:10:11.442Z,108.47
2023-03-11T08:14:11.652Z,108.91
2023-03-11T08:18:11.781Z,113.80
2023-03-11T08:22:11.970Z,111.02
2023-03-11T08:26:12.178Z,100.97
2023-03-11T08:30:12.304Z,113.10
2023-03-11T08:34:12.503Z,105.75
2023-03-11T08:38:12.698Z,115.83
2023-03-11T08:42:12.880Z,128.45
2023-03-11T08:46:13.055Z,121.54
2023-03-11T08:50:13.207Z,119.55
2023-03-11T08:54:13.332Z,118.57
2023-03-11T08:58:13.502Z,128.43
2023-03-11T09:02:13.654Z,126.64
2023-03-11T09:06:13.921Z,119.75
2023-03-11T09:10:13.924Z,111.24
2023-03-11T09:14:14.045Z,116.83
2023-03-11T09:18:14.177Z,126.54
2023-03-11T09:22:14.338Z,124.97
2023-03-11T09:26:14.528Z,124.35
2023-03-11T09:30:14.707Z,138.28
2023-03-11T09:34:16.207Z,132.41
2023-03-11T09:38:14.888Z,138.06
2023-03-11T09:42:15.047Z,143.55
2023-03-11T09:46:15.233Z,147.17
2023-03-11T09:50:15.339Z,134.75
2023-03-11T09:54:15.432Z,138.35
2023-03-11T09:58:15.562Z,144.18
2023-03-11T10:02:15.759Z,146.20
2023-03-11T10:06:15.854Z,149.73
2023-03-11T10:10:16.018Z,145.89
2023-03-11T10:14:16.114Z,136.82
2023-03-11T10:18:16.247Z,147.11
2023-03-11T10:22:16.348Z,198.54
2023-03-11T10:26:18.261Z,213.97
2023-03-11T10:30:16.470Z,219.58
2023-03-11T10:34:16.543Z,243.84
2023-03-11T10:38:16.542Z,239.72
2023-03-11T10:42:16.727Z,231.55
2023-03-11T10:46:16.589Z,241.66
2023-03-11T10:50:16.570Z,244.91
2023-03-11T10:54:16.561Z,235.36
2023-03-11T10:58:16.526Z,240.93
2023-03-11T11:02:16.714Z,240.39
2023-03-11T11:06:16.921Z,243.94
2023-03-11T11:10:17.036Z,235.00
2023-03-11T11:14:17.171Z,240.68
2023-03-11T11:18:17.335Z,235.46
2023-03-11T11:22:17.488Z,243.87
2023-03-11T11:26:17.730Z,247.07
2023-03-11T11:30:17.642Z,247.94
2023-03-11T11:34:17.653Z,236.84
2023-03-11T11:38:17.763Z,245.78
2023-03-11T11:42:17.567Z,241.51
2023-03-11T11:46:17.544Z,244.59
2023-03-11T11:50:17.602Z,244.55
2023-03-11T11:54:17.473Z,245.75
2023-03-11T11:58:17.428Z,246.02
2023-03-11T12:02:17.393Z,244.51
2023-03-11T12:06:17.484Z,244.07
2023-03-11T12:10:23.333Z,244.33
2023-03-11T12:14:18.490Z,246.52
2023-03-11T12:18:17.440Z,248.70
2023-03-11T12:22:17.622Z,245.53
2023-03-11T12:26:17.824Z,244.86
2023-03-11T12:30:18.008Z,247.08
2023-03-11T12:34:18.192Z,239.07
2023-03-11T12:38:18.443Z,242.82
2023-03-11T12:42:18.630Z,245.95
2023-03-11T12:46:18.817Z,240.30
2023-03-11T12:50:19.032Z,239.19
2023-03-11T12:54:19.228Z,238.55
2023-03-11T12:58:19.491Z,236.30
2023-03-11T13:02:19.620Z,230.10
2023-03-11T13:06:19.616Z,231.54
2023-03-11T13:10:19.612Z,238.57
2023-03-11T13:14:19.541Z,230.68
2023-03-11T13:18:19.504Z,236.40
2023-03-11T13:22:19.456Z,230.41
2023-03-11T13:26:19.429Z,230.00
2023-03-11T13:30:19.397Z,224.56
2023-03-11T13:34:19.373Z,224.67
2023-03-11T13:38:19.362Z,225.02
2023-03-11T13:42:19.334Z,216.33
2023-03-11T13:46:19.502Z,216.71
2023-03-11T13:50:19.658Z,211.49
2023-03-11T13:54:19.740Z,215.27
2023-03-11T13:58:19.753Z,210.99
2023-03-11T14:02:19.751Z,210.93
2023-03-11T14:06:20.103Z,213.18
2023-03-11T14:10:19.765Z,205.66
2023-03-11T14:14:19.739Z,205.03
2023-03-11T14:18:19.729Z,205.24
2023-03-11T14:22:19.709Z,215.61
2023-03-11T14:26:19.791Z,212.91
2023-03-11T14:30:19.761Z,220.93
2023-03-11T14:34:19.844Z,216.35
2023-03-11T14:38:19.811Z,210.57
2023-03-11T14:42:19.803Z,206.78
2023-03-11T14:46:20.479Z,222.71
2023-03-11T14:50:19.901Z,156.66
2023-03-11T14:54:19.912Z,170.04
2023-03-11T14:58:20.318Z,159.32
2023-03-11T15:02:19.985Z,156.76
2023-03-11T15:06:20.052Z,142.11
2023-03-11T15:10:20.064Z,130.09
2023-03-11T15:14:20.108Z,127.64
2023-03-11T15:18:20.223Z,126.47
2023-03-11T15:22:20.218Z,120.83
2023-03-11T15:26:20.329Z,138.16
2023-03-11T15:30:20.435Z,124.28
2023-03-11T15:34:20.540Z,111.73
2023-03-11T15:38:21.331Z,115.10
2023-03-11T15:42:20.657Z,110.73
2023-03-11T15:46:20.844Z,92.98
2023-03-11T15:50:25.255Z,112.02
2023-03-11T15:54:20.889Z,121.46
2023-03-11T15:58:21.338Z,126.76
2023-03-11T16:02:20.856Z,130.76
2023-03-11T16:06:20.786Z,113.35
2023-03-11T16:10:20.821Z,119.99
2023-03-11T16:14:21.034Z,123.39
2023-03-11T16:18:21.898Z,119.88
2023-03-11T16:22:21.354Z,105.70
2023-03-11T16:26:21.489Z,108.80
2023-03-11T16:30:21.684Z,106.91
2023-03-11T16:34:21.831Z,102.46
2023-03-11T16:38:22.021Z,87.23
2023-03-11T16:42:22.203Z,70.81
2023-03-11T16:46:22.406Z,92.51
2023-03-11T16:50:22.592Z,78.43
2023-03-11T16:54:22.716Z,46.99
2023-03-11T16:58:22.922Z,72.21
2023-03-11T17:02:24.584Z,46.60
2023-03-11T17:06:23.298Z,32.34
2023-03-11T17:10:23.450Z,38.90
2023-03-11T17:14:23.636Z,31.62
2023-03-11T17:18:23.851Z,39.24
2023-03-11T17:22:24.040Z,50.37
2023-03-11T17:26:24.260Z,43.67
2023-03-11T17:30:36.341Z,60.94
2023-03-11T17:34:25.442Z,50.97
2023-03-11T17:38:24.416Z,33.15
2023-03-11T17:42:24.455Z,34.53
2023-03-11T17:46:24.547Z,44.80
2023-03-11T17:50:24.717Z,42.35
2023-03-11T17:54:24.680Z,49.81
2023-03-11T17:58:24.672Z,32.65
2023-03-11T18:02:24.719Z,47.83
2023-03-11T18:06:24.609Z,32.99
2023-03-11T18:10:24.539Z,39.66
2023-03-11T18:14:24.527Z,27.90
2023-03-11T18:18:24.497Z,25.00
2023-03-11T18:22:24.442Z,39.34
2023-03-11T18:26:24.412Z,22.58
2023-03-11T18:30:24.385Z,47.31
2023-03-11T18:34:24.465Z,48.04
2023-03-11T18:38:24.433Z,36.68
2023-03-11T18:42:24.896Z,69.26
2023-03-11T18:46:24.387Z,52.55
2023-03-11T18:50:24.325Z,37.96
2023-03-11T18:54:24.288Z,31.39
2023-03-11T18:58:24.249Z,50.48
2023-03-11T19:02:24.255Z,27.04
2023-03-11T19:06:24.202Z,40.70
2023-03-11T19:10:24.322Z,44.24
2023-03-11T19:14:24.252Z,54.59
2023-03-11T19:18:24.218Z,41.84
2023-03-11T19:22:24.200Z,56.42
2023-03-11T19:26:41.551Z,47.75
2023-03-11T19:30:25.124Z,40.43
2023-03-11T19:34:24.112Z,52.61
2023-03-11T19:38:24.055Z,45.85
2023-03-11T19:42:24.056Z,54.94
2023-03-11T19:46:24.077Z,49.56
2023-03-11T19:50:23.987Z,49.64
2023-03-11T19:54:23.942Z,53.16
2023-03-11T19:58:23.917Z,53.97
2023-03-11T20:02:23.869Z,55.03
2023-03-11T20:06:23.830Z,66.22
2023-03-11T20:10:23.776Z,58.64
2023-03-11T20:14:24.052Z,58.79
2023-03-11T20:18:23.875Z,62.13
2023-03-11T20:22:23.853Z,60.37
2023-03-11T20:26:23.796Z,58.82
2023-03-11T20:30:23.804Z,68.03
2023-03-11T20:34:23.735Z,65.76
2023-03-11T20:38:23.800Z,61.47
2023-03-11T20:42:23.663Z,62.64
2023-03-11T20:46:23.689Z,63.97
2023-03-11T20:50:23.694Z,67.51
2023-03-11T20:54:23.753Z,64.15
2023-03-11T20:58:23.727Z,52.84
2023-03-11T21:02:23.889Z,59.76
2023-03-11T21:06:23.619Z,47.41
2023-03-11T21:10:23.709Z,37.42
2023-03-11T21:14:23.557Z,42.01
2023-03-11T21:18:23.533Z,36.52
2023-03-11T21:22:23.606Z,41.68
2023-03-11T21:26:23.558Z,40.76
2023-03-11T21:30:23.474Z,41.65
2023-03-11T21:34:23.688Z,38.69
2023-03-11T21:38:23.642Z,43.91
2023-03-11T21:42:23.590Z,45.25
2023-03-11T21:46:23.729Z,38.71
2023-03-11T21:50:23.955Z,40.38
2023-03-11T21:54:23.440Z,43.52
2023-03-11T21:58:23.391Z,45.88
2023-03-11T22:02:23.385Z,36.48
2023-03-11T22:06:23.455Z,32.00
2023-03-11T22:10:23.509Z,36.68
2023-03-11T22:14:23.672Z,25.89
2023-03-11T22:18:23.680Z,26.83
2023-03-11T22:22:23.755Z,31.12
2023-03-11T22:26:23.605Z,38.59
2023-03-11T22:30:23.562Z,31.93
2023-03-11T22:34:23.525Z,35.67
2023-03-11T22:38:23.508Z,27.55
2023-03-11T22:42:23.442Z,29.57
2023-03-11T22:46:23.466Z,29.82
2023-03-11T22:50:23.411Z,25.25
2023-03-11T22:54:23.459Z,35.28
2023-03-11T22:58:23.338Z,33.15
2023-03-11T23:02:23.476Z,34.70
2023-03-11T23:06:23.604Z,28.93
2023-03-11T23:10:23.748Z,28.59
2023-03-11T23:14:37.915Z,30.93
2023-03-11T23:18:24.963Z,27.26
2023-03-11T23:22:23.949Z,27.96
2023-03-11T23:26:24.068Z,28.28
2023-03-11T23:30:24.159Z,36.56
2023-03-11T23:34:24.529Z,30.46
2023-03-11T23:38:24.553Z,28.99
2023-03-11T23:42:26.116Z,32.02
2023-03-11T23:46:24.507Z,26.34
2023-03-11T23:50:24.424Z,30.47
2023-03-11T23:54:24.602Z,32.94
2023-03-11T23:58:24.795Z,34.04
